sensor_id;sensor_type;location;lat;lon;timestamp;temperature;humidity
20881;DHT22;10600;53.096;8.802;2023-06-14T00:00:00;14.90;99.90
20881;DHT22;10600;53.096;8.802;2023-06-14T00:01:01;14.90;99.90
20881;DHT22;10600;53.096;8.802;2023-06-14T00:02:03;14.90;99.90
20881;DHT22;10600;53.096;8.802;2023-06-14T00:03:04;14.90;99.90
20881;DHT22;10600;53.096;8.802;2023-06-14T00:04:05;14.90;99.90
20881;DHT22;10600;53.096;8.802;2023-06-14T00:05:09;14.90;99.90
20881;DHT22;10600;53.096;8.802;2023-06-14T00:06:09;14.90;99.90
20881;DHT22;10600;53.096;8.802;2023-06-14T00:07:10;14.90;99.90
20881;DHT22;10600;53.096;8.802;2023-06-14T00:08:14;14.80;99.90
20881;DHT22;10600;53.096;8.802;2023-06-14T00:09:15;14.80;99.90
20881;DHT22;10600;53.096;8.802;2023-06-14T00:10:17;14.80;99.90
20881;DHT22;10600;53.096;8.802;2023-06-14T00:11:18;14.80;99.90
20881;DHT22;10600;53.096;8.802;2023-06-14T00:12:19;14.80;99.90
20881;DHT22;10600;53.096;8.802;2023-06-14T00:13:19;14.80;99.90
20881;DHT22;10600;53.096;8.802;2023-06-14T00:14:20;14.80;99.90
20881;DHT22;10600;53.096;8.802;2023-06-14T00:15:21;14.80;99.90
20881;DHT22;10600;53.096;8.802;2023-06-14T00:16:21;14.80;99.90
20881;DHT22;10600;53.096;8.802;2023-06-14T00:17:23;14.80;99.90
20881;DHT22;10600;53.096;8.802;2023-06-14T00:18:24;14.80;99.90
20881;DHT22;10600;53.096;8.802;2023-06-14T00:19:25;14.80;99.90
20881;DHT22;10600;53.096;8.802;2023-06-14T00:20:27;14.80;99.90
20881;DHT22;10600;53.096;8.802;2023-06-14T00:21:28;14.80;99.90
20881;DHT22;10600;53.096;8.802;2023-06-14T00:22:30;14.80;99.90
20881;DHT22;10600;53.096;8.802;2023-06-14T00:23:31;14.80;99.90
20881;DHT22;10600;53.096;8.802;2023-06-14T00:24:31;14.70;99.90
20881;DHT22;10600;53.096;8.802;2023-06-14T00:25:32;14.70;99.90
20881;DHT22;10600;53.096;8.802;2023-06-14T00:26:33;14.70;99.90
20881;DHT22;10600;53.096;8.802;2023-06-14T00:27:33;14.70;99.90
20881;DHT22;10600;53.096;8.802;2023-06-14T00:28:34;14.70;99.90
20881;DHT22;10600;53.096;8.802;2023-06-14T00:29:35;14.70;99.90
20881;DHT22;10600;53.096;8.802;2023-06-14T00:30:35;14.70;99.90
20881;DHT22;10600;53.096;8.802;2023-06-14T00:31:36;14.70;99.90
20881;DHT22;10600;53.096;8.802;2023-06-14T00:32:36;14.70;99.90
20881;DHT22;10600;53.096;8.802;2023-06-14T00:33:37;14.70;99.90
20881;DHT22;10600;53.096;8.802;2023-06-14T00:34:38;14.60;99.90
20881;DHT22;10600;53.096;8.802;2023-06-14T00:35:38;14.60;99.90
20881;DHT22;10600;53.096;8.802;2023-06-14T00:36:39;14.60;99.90
20881;DHT22;10600;53.096;8.802;2023-06-14T00:37:40;14.60;99.90
20881;DHT22;10600;53.096;8.802;2023-06-14T00:38:40;14.60;99.90
20881;DHT22;10600;53.096;8.802;2023-06-14T00:39:41;14.60;99.90
20881;DHT22;10600;53.096;8.802;2023-06-14T00:40:41;14.60;99.90
20881;DHT22;10600;53.096;8.802;2023-06-14T00:41:42;14.60;99.90
20881;DHT22;10600;53.096;8.802;2023-06-14T00:42:43;14.50;99.90
20881;DHT22;10600;53.096;8.802;2023-06-14T00:43:43;14.50;99.90
20881;DHT22;10600;53.096;8.802;2023-06-14T00:44:44;14.50;99.90
20881;DHT22;10600;53.096;8.802;2023-06-14T00:45:45;14.50;99.90
20881;DHT22;10600;53.096;8.802;2023-06-14T00:46:45;14.50;99.90
20881;DHT22;10600;53.096;8.802;2023-06-14T00:47:46;14.50;99.90
20881;DHT22;10600;53.096;8.802;2023-06-14T00:48:48;14.40;99.90
20881;DHT22;10600;53.096;8.802;2023-06-14T00:49:50;14.40;99.90
20881;DHT22;10600;53.096;8.802;2023-06-14T00:50:54;14.40;99.90
20881;DHT22;10600;53.096;8.802;2023-06-14T00:51:55;14.40;99.90
20881;DHT22;10600;53.096;8.802;2023-06-14T00:52:56;14.40;99.90
20881;DHT22;10600;53.096;8.802;2023-06-14T00:53:58;14.30;99.90
20881;DHT22;10600;53.096;8.802;2023-06-14T00:54:58;14.30;99.90
20881;DHT22;10600;53.096;8.802;2023-06-14T00:55:59;14.30;99.90
20881;DHT22;10600;53.096;8.802;2023-06-14T00:57:00;14.30;99.90
20881;DHT22;10600;53.096;8.802;2023-06-14T00:58:01;14.30;99.90
20881;DHT22;10600;53.096;8.802;2023-06-14T00:59:02;14.30;99.90
20881;DHT22;10600;53.096;8.802;2023-06-14T01:00:03;14.30;99.90
20881;DHT22;10600;53.096;8.802;2023-06-14T01:01:09;14.30;99.90
20881;DHT22;10600;53.096;8.802;2023-06-14T01:02:11;14.20;99.90
20881;DHT22;10600;53.096;8.802;2023-06-14T01:03:12;14.20;99.90
20881;DHT22;10600;53.096;8.802;2023-06-14T01:04:14;14.20;99.90
20881;DHT22;10600;53.096;8.802;2023-06-14T01:05:15;14.20;99.90
20881;DHT22;10600;53.096;8.802;2023-06-14T01:06:38;14.20;99.90
20881;DHT22;10600;53.096;8.802;2023-06-14T01:08:05;14.20;99.90
20881;DHT22;10600;53.096;8.802;2023-06-14T01:09:16;14.20;99.90
20881;DHT22;10600;53.096;8.802;2023-06-14T01:12:00;14.20;99.90
20881;DHT22;10600;53.096;8.802;2023-06-14T01:13:27;14.20;99.90
20881;DHT22;10600;53.096;8.802;2023-06-14T01:14:31;14.20;99.90
20881;DHT22;10600;53.096;8.802;2023-06-14T01:15:33;14.20;99.90
20881;DHT22;10600;53.096;8.802;2023-06-14T01:16:35;14.20;99.90
20881;DHT22;10600;53.096;8.802;2023-06-14T01:17:36;14.20;99.90
20881;DHT22;10600;53.096;8.802;2023-06-14T01:18:44;14.10;99.90
20881;DHT22;10600;53.096;8.802;2023-06-14T01:19:48;14.10;99.90
20881;DHT22;10600;53.096;8.802;2023-06-14T01:20:49;14.10;99.90
20881;DHT22;10600;53.096;8.802;2023-06-14T01:21:50;14.10;99.90
20881;DHT22;10600;53.096;8.802;2023-06-14T01:22:54;14.10;99.90
20881;DHT22;10600;53.096;8.802;2023-06-14T01:23:55;14.00;99.90
20881;DHT22;10600;53.096;8.802;2023-06-14T01:24:56;14.00;99.90
20881;DHT22;10600;53.096;8.802;2023-06-14T01:25:56;14.00;99.90
20881;DHT22;10600;53.096;8.802;2023-06-14T01:26:58;14.00;99.90
20881;DHT22;10600;53.096;8.802;2023-06-14T01:28:02;13.90;99.90
20881;DHT22;10600;53.096;8.802;2023-06-14T01:29:03;13.90;99.90
20881;DHT22;10600;53.096;8.802;2023-06-14T01:30:05;13.90;99.90
20881;DHT22;10600;53.096;8.802;2023-06-14T01:31:07;13.80;99.90
20881;DHT22;10600;53.096;8.802;2023-06-14T01:32:08;13.80;99.90
20881;DHT22;10600;53.096;8.802;2023-06-14T01:33:09;13.80;99.90
20881;DHT22;10600;53.096;8.802;2023-06-14T01:34:10;13.70;99.90
20881;DHT22;10600;53.096;8.802;2023-06-14T01:35:10;13.80;99.90
20881;DHT22;10600;53.096;8.802;2023-06-14T01:36:12;13.80;99.90
20881;DHT22;10600;53.096;8.802;2023-06-14T01:37:14;13.70;99.90
20881;DHT22;10600;53.096;8.802;2023-06-14T01:38:15;13.70;99.90
20881;DHT22;10600;53.096;8.802;2023-06-14T01:39:17;13.70;99.90
20881;DHT22;10600;53.096;8.802;2023-06-14T01:40:18;13.70;99.90
20881;DHT22;10600;53.096;8.802;2023-06-14T01:41:21;13.70;99.90
20881;DHT22;10600;53.096;8.802;2023-06-14T01:42:23;13.60;99.90
20881;DHT22;10600;53.096;8.802;2023-06-14T01:43:25;13.60;99.90
20881;DHT22;10600;53.096;8.802;2023-06-14T01:44:27;13.60;99.90
20881;DHT22;10600;53.096;8.802;2023-06-14T01:45:29;13.60;99.90
20881;DHT22;10600;53.096;8.802;2023-06-14T01:46:31;13.60;99.90
20881;DHT22;10600;53.096;8.802;2023-06-14T01:47:32;13.60;99.90
20881;DHT22;10600;53.096;8.802;2023-06-14T01:48:33;13.60;99.90
20881;DHT22;10600;53.096;8.802;2023-06-14T01:49:34;13.60;99.90
20881;DHT22;10600;53.096;8.802;2023-06-14T01:50:35;13.60;99.90
20881;DHT22;10600;53.096;8.802;2023-06-14T01:51:36;13.50;99.90
20881;DHT22;10600;53.096;8.802;2023-06-14T01:52:37;13.60;99.90
20881;DHT22;10600;53.096;8.802;2023-06-14T01:53:38;13.50;99.90
20881;DHT22;10600;53.096;8.802;2023-06-14T01:54:39;13.50;99.90
20881;DHT22;10600;53.096;8.802;2023-06-14T01:55:43;13.50;99.90
20881;DHT22;10600;53.096;8.802;2023-06-14T01:56:44;13.50;99.90
20881;DHT22;10600;53.096;8.802;2023-06-14T01:57:44;13.50;99.90
20881;DHT22;10600;53.096;8.802;2023-06-14T01:58:45;13.50;99.90
20881;DHT22;10600;53.096;8.802;2023-06-14T01:59:46;13.50;99.90
20881;DHT22;10600;53.096;8.802;2023-06-14T02:00:48;13.50;99.90
20881;DHT22;10600;53.096;8.802;2023-06-14T02:01:49;13.50;99.90
20881;DHT22;10600;53.096;8.802;2023-06-14T02:02:50;13.50;99.90
20881;DHT22;10600;53.096;8.802;2023-06-14T02:03:51;13.50;99.90
20881;DHT22;10600;53.096;8.802;2023-06-14T02:04:51;13.50;99.90
20881;DHT22;10600;53.096;8.802;2023-06-14T02:05:55;13.40;99.90
20881;DHT22;10600;53.096;8.802;2023-06-14T02:06:59;13.40;99.90
20881;DHT22;10600;53.096;8.802;2023-06-14T02:08:00;13.40;99.90
20881;DHT22;10600;53.096;8.802;2023-06-14T02:09:01;13.40;99.90
20881;DHT22;10600;53.096;8.802;2023-06-14T02:10:04;13.40;99.90
20881;DHT22;10600;53.096;8.802;2023-06-14T02:11:05;13.40;99.90
20881;DHT22;10600;53.096;8.802;2023-06-14T02:12:06;13.30;99.90
20881;DHT22;10600;53.096;8.802;2023-06-14T02:13:07;13.30;99.90
20881;DHT22;10600;53.096;8.802;2023-06-14T02:14:07;13.30;99.90
20881;DHT22;10600;53.096;8.802;2023-06-14T02:15:11;13.30;99.90
20881;DHT22;10600;53.096;8.802;2023-06-14T02:16:17;13.30;99.90
20881;DHT22;10600;53.096;8.802;2023-06-14T02:17:17;13.30;99.90
20881;DHT22;10600;53.096;8.802;2023-06-14T02:18:18;13.30;99.90
20881;DHT22;10600;53.096;8.802;2023-06-14T02:19:19;13.20;99.90
20881;DHT22;10600;53.096;8.802;2023-06-14T02:20:20;13.20;99.90
20881;DHT22;10600;53.096;8.802;2023-06-14T02:21:21;13.30;99.90
20881;DHT22;10600;53.096;8.802;2023-06-14T02:22:22;13.20;99.90
20881;DHT22;10600;53.096;8.802;2023-06-14T02:23:23;13.20;99.90
20881;DHT22;10600;53.096;8.802;2023-06-14T02:24:23;13.20;99.90
20881;DHT22;10600;53.096;8.802;2023-06-14T02:25:24;13.10;99.90
20881;DHT22;10600;53.096;8.802;2023-06-14T02:26:25;13.10;99.90
20881;DHT22;10600;53.096;8.802;2023-06-14T02:27:29;13.00;99.90
20881;DHT22;10600;53.096;8.802;2023-06-14T02:28:30;13.10;99.90
20881;DHT22;10600;53.096;8.802;2023-06-14T02:29:30;13.00;99.90
20881;DHT22;10600;53.096;8.802;2023-06-14T02:30:31;13.00;99.90
20881;DHT22;10600;53.096;8.802;2023-06-14T02:31:32;13.00;99.90
20881;DHT22;10600;53.096;8.802;2023-06-14T02:32:33;13.00;99.90
20881;DHT22;10600;53.096;8.802;2023-06-14T02:33:36;12.90;99.90
20881;DHT22;10600;53.096;8.802;2023-06-14T02:34:37;12.90;99.90
20881;DHT22;10600;53.096;8.802;2023-06-14T02:35:41;12.90;99.90
20881;DHT22;10600;53.096;8.802;2023-06-14T02:36:42;12.90;99.90
20881;DHT22;10600;53.096;8.802;2023-06-14T02:37:42;12.80;99.90
20881;DHT22;10600;53.096;8.802;2023-06-14T02:38:43;12.80;99.90
20881;DHT22;10600;53.096;8.802;2023-06-14T02:39:44;12.80;99.90
20881;DHT22;10600;53.096;8.802;2023-06-14T02:40:44;12.80;99.90
20881;DHT22;10600;53.096;8.802;2023-06-14T02:41:47;12.80;99.90
20881;DHT22;10600;53.096;8.802;2023-06-14T02:42:51;12.70;99.90
20881;DHT22;10600;53.096;8.802;2023-06-14T02:43:52;12.70;99.90
20881;DHT22;10600;53.096;8.802;2023-06-14T02:44:56;12.70;99.90
20881;DHT22;10600;53.096;8.802;2023-06-14T02:45:57;12.70;99.90
20881;DHT22;10600;53.096;8.802;2023-06-14T02:46:58;12.60;99.90
20881;DHT22;10600;53.096;8.802;2023-06-14T02:48:01;12.60;99.90
20881;DHT22;10600;53.096;8.802;2023-06-14T02:49:01;12.60;99.90
20881;DHT22;10600;53.096;8.802;2023-06-14T02:50:03;12.50;99.90
20881;DHT22;10600;53.096;8.802;2023-06-14T02:51:04;12.50;99.90
20881;DHT22;10600;53.096;8.802;2023-06-14T02:52:05;12.50;99.90
20881;DHT22;10600;53.096;8.802;2023-06-14T02:53:06;12.50;99.90
20881;DHT22;10600;53.096;8.802;2023-06-14T02:54:07;12.40;99.90
20881;DHT22;10600;53.096;8.802;2023-06-14T02:55:08;12.40;99.90
20881;DHT22;10600;53.096;8.802;2023-06-14T02:56:13;12.40;99.90
20881;DHT22;10600;53.096;8.802;2023-06-14T02:57:14;12.40;99.90
20881;DHT22;10600;53.096;8.802;2023-06-14T02:58:18;12.40;99.90
20881;DHT22;10600;53.096;8.802;2023-06-14T02:59:19;12.30;99.90
20881;DHT22;10600;53.096;8.802;2023-06-14T03:00:21;12.30;99.90
20881;DHT22;10600;53.096;8.802;2023-06-14T03:01:25;12.30;99.90
20881;DHT22;10600;53.096;8.802;2023-06-14T03:02:34;12.40;99.90
20881;DHT22;10600;53.096;8.802;2023-06-14T03:03:34;12.40;99.90
20881;DHT22;10600;53.096;8.802;2023-06-14T03:04:35;12.30;99.90
20881;DHT22;10600;53.096;8.802;2023-06-14T03:05:37;12.30;99.90
20881;DHT22;10600;53.096;8.802;2023-06-14T03:06:41;12.40;99.90
20881;DHT22;10600;53.096;8.802;2023-06-14T03:07:44;12.40;99.90
20881;DHT22;10600;53.096;8.802;2023-06-14T03:08:45;12.30;99.90
20881;DHT22;10600;53.096;8.802;2023-06-14T03:09:46;12.30;99.90
20881;DHT22;10600;53.096;8.802;2023-06-14T03:10:47;12.30;99.90
20881;DHT22;10600;53.096;8.802;2023-06-14T03:11:48;12.30;99.90
20881;DHT22;10600;53.096;8.802;2023-06-14T03:12:49;12.30;99.90
20881;DHT22;10600;53.096;8.802;2023-06-14T03:13:50;12.30;99.90
20881;DHT22;10600;53.096;8.802;2023-06-14T03:14:51;12.30;99.90
20881;DHT22;10600;53.096;8.802;2023-06-14T03:15:52;12.30;99.90
20881;DHT22;10600;53.096;8.802;2023-06-14T03:16:52;12.30;99.90
20881;DHT22;10600;53.096;8.802;2023-06-14T03:17:57;12.30;99.90
20881;DHT22;10600;53.096;8.802;2023-06-14T03:18:57;12.40;99.90
20881;DHT22;10600;53.096;8.802;2023-06-14T03:19:58;12.30;99.90
20881;DHT22;10600;53.096;8.802;2023-06-14T03:20:59;12.40;99.90
20881;DHT22;10600;53.096;8.802;2023-06-14T03:21:59;12.40;99.90
20881;DHT22;10600;53.096;8.802;2023-06-14T03:23:01;12.40;99.90
20881;DHT22;10600;53.096;8.802;2023-06-14T03:24:02;12.40;99.90
20881;DHT22;10600;53.096;8.802;2023-06-14T03:25:04;12.40;99.90
20881;DHT22;10600;53.096;8.802;2023-06-14T03:26:04;12.40;99.90
20881;DHT22;10600;53.096;8.802;2023-06-14T03:27:05;12.50;99.90
20881;DHT22;10600;53.096;8.802;2023-06-14T03:28:06;12.50;99.90
20881;DHT22;10600;53.096;8.802;2023-06-14T03:29:06;12.50;99.90
20881;DHT22;10600;53.096;8.802;2023-06-14T03:30:08;12.50;99.90
20881;DHT22;10600;53.096;8.802;2023-06-14T03:31:08;12.50;99.90
20881;DHT22;10600;53.096;8.802;2023-06-14T03:32:09;12.50;99.90
20881;DHT22;10600;53.096;8.802;2023-06-14T03:33:10;12.50;99.90
20881;DHT22;10600;53.096;8.802;2023-06-14T03:34:11;12.50;99.90
20881;DHT22;10600;53.096;8.802;2023-06-14T03:35:11;12.50;99.90
20881;DHT22;10600;53.096;8.802;2023-06-14T03:36:17;12.50;99.90
20881;DHT22;10600;53.096;8.802;2023-06-14T03:37:18;12.50;99.90
20881;DHT22;10600;53.096;8.802;2023-06-14T03:38:18;12.60;99.90
20881;DHT22;10600;53.096;8.802;2023-06-14T03:39:19;12.60;99.90
20881;DHT22;10600;53.096;8.802;2023-06-14T03:40:21;12.60;99.90
20881;DHT22;10600;53.096;8.802;2023-06-14T03:41:21;12.50;99.90
20881;DHT22;10600;53.096;8.802;2023-06-14T03:42:22;12.60;99.90
20881;DHT22;10600;53.096;8.802;2023-06-14T03:43:23;12.60;99.90
20881;DHT22;10600;53.096;8.802;2023-06-14T03:44:26;12.60;99.90
20881;DHT22;10600;53.096;8.802;2023-06-14T03:45:27;12.60;99.90
20881;DHT22;10600;53.096;8.802;2023-06-14T03:46:27;12.60;99.90
20881;DHT22;10600;53.096;8.802;2023-06-14T03:47:28;12.60;99.90
20881;DHT22;10600;53.096;8.802;2023-06-14T03:48:28;12.60;99.90
20881;DHT22;10600;53.096;8.802;2023-06-14T03:49:29;12.70;99.90
20881;DHT22;10600;53.096;8.802;2023-06-14T03:50:29;12.60;99.90
20881;DHT22;10600;53.096;8.802;2023-06-14T03:51:30;12.70;99.90
20881;DHT22;10600;53.096;8.802;2023-06-14T03:52:31;12.70;99.90
20881;DHT22;10600;53.096;8.802;2023-06-14T03:53:33;12.70;99.90
20881;DHT22;10600;53.096;8.802;2023-06-14T03:54:35;12.70;99.90
20881;DHT22;10600;53.096;8.802;2023-06-14T03:55:36;12.80;99.90
20881;DHT22;10600;53.096;8.802;2023-06-14T03:56:38;12.80;99.90
20881;DHT22;10600;53.096;8.802;2023-06-14T03:57:38;12.80;99.90
20881;DHT22;10600;53.096;8.802;2023-06-14T03:58:39;12.80;99.90
20881;DHT22;10600;53.096;8.802;2023-06-14T03:59:40;12.80;99.90
20881;DHT22;10600;53.096;8.802;2023-06-14T04:00:41;12.80;99.90
20881;DHT22;10600;53.096;8.802;2023-06-14T04:01:42;12.80;99.90
20881;DHT22;10600;53.096;8.802;2023-06-14T04:02:45;12.80;99.90
20881;DHT22;10600;53.096;8.802;2023-06-14T04:03:45;12.90;99.90
20881;DHT22;10600;53.096;8.802;2023-06-14T04:04:46;12.90;99.90
20881;DHT22;10600;53.096;8.802;2023-06-14T04:05:48;12.90;99.90
20881;DHT22;10600;53.096;8.802;2023-06-14T04:06:49;12.90;99.90
20881;DHT22;10600;53.096;8.802;2023-06-14T04:07:50;12.90;99.90
20881;DHT22;10600;53.096;8.802;2023-06-14T04:08:51;12.90;99.90
20881;DHT22;10600;53.096;8.802;2023-06-14T04:09:52;12.90;99.90
20881;DHT22;10600;53.096;8.802;2023-06-14T04:10:53;12.90;99.90
20881;DHT22;10600;53.096;8.802;2023-06-14T04:11:53;12.90;99.90
20881;DHT22;10600;53.096;8.802;2023-06-14T04:12:55;12.90;99.90
20881;DHT22;10600;53.096;8.802;2023-06-14T04:13:55;12.90;99.90
20881;DHT22;10600;53.096;8.802;2023-06-14T04:14:57;13.00;99.90
20881;DHT22;10600;53.096;8.802;2023-06-14T04:15:57;12.90;99.90
20881;DHT22;10600;53.096;8.802;2023-06-14T04:16:58;12.90;99.90
20881;DHT22;10600;53.096;8.802;2023-06-14T04:18:00;13.00;99.90
20881;DHT22;10600;53.096;8.802;2023-06-14T04:19:01;13.00;99.90
20881;DHT22;10600;53.096;8.802;2023-06-14T04:20:02;13.00;99.90
20881;DHT22;10600;53.096;8.802;2023-06-14T04:21:07;13.00;99.90
20881;DHT22;10600;53.096;8.802;2023-06-14T04:22:08;13.00;99.90
20881;DHT22;10600;53.096;8.802;2023-06-14T04:23:12;13.00;99.90
20881;DHT22;10600;53.096;8.802;2023-06-14T04:24:13;13.00;99.90
20881;DHT22;10600;53.096;8.802;2023-06-14T04:25:14;13.10;99.90
20881;DHT22;10600;53.096;8.802;2023-06-14T04:26:15;13.10;99.90
20881;DHT22;10600;53.096;8.802;2023-06-14T04:27:16;13.10;99.90
20881;DHT22;10600;53.096;8.802;2023-06-14T04:28:21;13.20;99.90
20881;DHT22;10600;53.096;8.802;2023-06-14T04:29:27;13.20;99.90
20881;DHT22;10600;53.096;8.802;2023-06-14T04:30:29;13.20;99.90
20881;DHT22;10600;53.096;8.802;2023-06-14T04:31:32;13.20;99.90
20881;DHT22;10600;53.096;8.802;2023-06-14T04:32:38;13.30;99.90
20881;DHT22;10600;53.096;8.802;2023-06-14T04:33:39;13.30;99.90
20881;DHT22;10600;53.096;8.802;2023-06-14T04:34:44;13.30;99.90
20881;DHT22;10600;53.096;8.802;2023-06-14T04:35:45;13.30;99.90
20881;DHT22;10600;53.096;8.802;2023-06-14T04:36:48;13.40;99.90
20881;DHT22;10600;53.096;8.802;2023-06-14T04:37:53;13.40;99.90
20881;DHT22;10600;53.096;8.802;2023-06-14T04:38:54;13.50;99.90
20881;DHT22;10600;53.096;8.802;2023-06-14T04:39:55;13.50;99.90
20881;DHT22;10600;53.096;8.802;2023-06-14T04:40:56;13.60;99.90
20881;DHT22;10600;53.096;8.802;2023-06-14T04:41:57;13.60;99.90
20881;DHT22;10600;53.096;8.802;2023-06-14T04:43:03;13.60;99.90
20881;DHT22;10600;53.096;8.802;2023-06-14T04:44:05;13.70;99.90
20881;DHT22;10600;53.096;8.802;2023-06-14T04:45:08;13.70;99.90
20881;DHT22;10600;53.096;8.802;2023-06-14T04:46:09;13.80;99.90
20881;DHT22;10600;53.096;8.802;2023-06-14T04:47:10;13.80;99.90
20881;DHT22;10600;53.096;8.802;2023-06-14T04:48:16;13.90;99.90
20881;DHT22;10600;53.096;8.802;2023-06-14T04:49:18;13.90;99.90
20881;DHT22;10600;53.096;8.802;2023-06-14T04:50:19;14.00;99.90
20881;DHT22;10600;53.096;8.802;2023-06-14T04:51:20;14.00;99.90
20881;DHT22;10600;53.096;8.802;2023-06-14T04:52:22;14.00;99.90
20881;DHT22;10600;53.096;8.802;2023-06-14T04:53:23;14.10;99.90
20881;DHT22;10600;53.096;8.802;2023-06-14T04:54:24;14.10;99.90
20881;DHT22;10600;53.096;8.802;2023-06-14T04:55:27;14.20;99.90
20881;DHT22;10600;53.096;8.802;2023-06-14T04:56:28;14.20;99.90
20881;DHT22;10600;53.096;8.802;2023-06-14T04:57:31;14.20;99.90
20881;DHT22;10600;53.096;8.802;2023-06-14T04:58:32;14.20;99.90
20881;DHT22;10600;53.096;8.802;2023-06-14T04:59:32;14.30;99.90
20881;DHT22;10600;53.096;8.802;2023-06-14T05:00:35;14.40;99.90
20881;DHT22;10600;53.096;8.802;2023-06-14T05:01:36;14.40;99.90
20881;DHT22;10600;53.096;8.802;2023-06-14T05:02:37;14.40;99.90
20881;DHT22;10600;53.096;8.802;2023-06-14T05:03:38;14.40;99.90
20881;DHT22;10600;53.096;8.802;2023-06-14T05:04:39;14.50;99.90
20881;DHT22;10600;53.096;8.802;2023-06-14T05:05:42;14.50;99.90
20881;DHT22;10600;53.096;8.802;2023-06-14T05:06:44;14.60;99.90
20881;DHT22;10600;53.096;8.802;2023-06-14T05:07:45;14.60;99.90
20881;DHT22;10600;53.096;8.802;2023-06-14T05:08:46;14.70;99.90
20881;DHT22;10600;53.096;8.802;2023-06-14T05:09:47;14.70;99.90
20881;DHT22;10600;53.096;8.802;2023-06-14T05:10:48;14.80;99.90
20881;DHT22;10600;53.096;8.802;2023-06-14T05:11:49;14.80;99.90
20881;DHT22;10600;53.096;8.802;2023-06-14T05:12:54;14.90;99.90
20881;DHT22;10600;53.096;8.802;2023-06-14T05:13:55;14.90;99.90
20881;DHT22;10600;53.096;8.802;2023-06-14T05:14:56;14.90;99.90
20881;DHT22;10600;53.096;8.802;2023-06-14T05:15:58;15.00;99.90
20881;DHT22;10600;53.096;8.802;2023-06-14T05:16:59;15.00;99.90
20881;DHT22;10600;53.096;8.802;2023-06-14T05:18:00;15.00;99.90
20881;DHT22;10600;53.096;8.802;2023-06-14T05:19:00;15.10;99.90
20881;DHT22;10600;53.096;8.802;2023-06-14T05:20:02;15.10;99.90
20881;DHT22;10600;53.096;8.802;2023-06-14T05:21:03;15.20;99.90
20881;DHT22;10600;53.096;8.802;2023-06-14T05:22:05;15.20;99.90
20881;DHT22;10600;53.096;8.802;2023-06-14T05:23:05;15.30;99.90
20881;DHT22;10600;53.096;8.802;2023-06-14T05:24:06;15.30;99.90
20881;DHT22;10600;53.096;8.802;2023-06-14T05:25:07;15.40;99.90
20881;DHT22;10600;53.096;8.802;2023-06-14T05:26:08;15.50;99.90
20881;DHT22;10600;53.096;8.802;2023-06-14T05:27:08;15.50;99.90
20881;DHT22;10600;53.096;8.802;2023-06-14T05:28:09;15.60;99.90
20881;DHT22;10600;53.096;8.802;2023-06-14T05:29:10;15.60;99.90
20881;DHT22;10600;53.096;8.802;2023-06-14T05:30:11;15.60;99.90
20881;DHT22;10600;53.096;8.802;2023-06-14T05:31:12;15.60;99.90
20881;DHT22;10600;53.096;8.802;2023-06-14T05:32:13;15.60;99.90
20881;DHT22;10600;53.096;8.802;2023-06-14T05:33:13;15.70;99.90
20881;DHT22;10600;53.096;8.802;2023-06-14T05:34:14;15.70;99.90
20881;DHT22;10600;53.096;8.802;2023-06-14T05:35:15;15.70;99.90
20881;DHT22;10600;53.096;8.802;2023-06-14T05:36:15;15.70;99.90
20881;DHT22;10600;53.096;8.802;2023-06-14T05:37:16;15.80;99.90
20881;DHT22;10600;53.096;8.802;2023-06-14T05:38:17;15.80;99.90
20881;DHT22;10600;53.096;8.802;2023-06-14T05:39:18;15.80;99.90
20881;DHT22;10600;53.096;8.802;2023-06-14T05:40:19;15.90;99.90
20881;DHT22;10600;53.096;8.802;2023-06-14T05:41:19;16.00;99.90
20881;DHT22;10600;53.096;8.802;2023-06-14T05:42:21;16.00;99.90
20881;DHT22;10600;53.096;8.802;2023-06-14T05:43:21;16.10;99.90
20881;DHT22;10600;53.096;8.802;2023-06-14T05:44:22;16.10;99.90
20881;DHT22;10600;53.096;8.802;2023-06-14T05:45:23;16.20;99.90
20881;DHT22;10600;53.096;8.802;2023-06-14T05:46:26;16.30;99.90
20881;DHT22;10600;53.096;8.802;2023-06-14T05:47:27;16.40;99.90
20881;DHT22;10600;53.096;8.802;2023-06-14T05:48:30;16.50;99.90
20881;DHT22;10600;53.096;8.802;2023-06-14T05:49:30;16.50;99.90
20881;DHT22;10600;53.096;8.802;2023-06-14T05:50:31;16.60;99.90
20881;DHT22;10600;53.096;8.802;2023-06-14T05:51:32;16.60;99.90
20881;DHT22;10600;53.096;8.802;2023-06-14T05:52:33;16.70;99.90
20881;DHT22;10600;53.096;8.802;2023-06-14T05:53:34;16.70;99.90
20881;DHT22;10600;53.096;8.802;2023-06-14T05:54:34;16.80;99.90
20881;DHT22;10600;53.096;8.802;2023-06-14T05:55:35;16.90;99.90
20881;DHT22;10600;53.096;8.802;2023-06-14T05:56:36;16.90;99.90
20881;DHT22;10600;53.096;8.802;2023-06-14T05:57:37;17.00;99.90
20881;DHT22;10600;53.096;8.802;2023-06-14T05:58:37;17.10;99.90
20881;DHT22;10600;53.096;8.802;2023-06-14T05:59:38;17.20;99.90
20881;DHT22;10600;53.096;8.802;2023-06-14T06:00:39;17.20;99.90
20881;DHT22;10600;53.096;8.802;2023-06-14T06:01:39;17.30;99.90
20881;DHT22;10600;53.096;8.802;2023-06-14T06:02:43;17.30;99.90
20881;DHT22;10600;53.096;8.802;2023-06-14T06:03:44;17.40;99.90
20881;DHT22;10600;53.096;8.802;2023-06-14T06:04:46;17.40;99.90
20881;DHT22;10600;53.096;8.802;2023-06-14T06:05:46;17.50;99.90
20881;DHT22;10600;53.096;8.802;2023-06-14T06:06:47;17.50;99.90
20881;DHT22;10600;53.096;8.802;2023-06-14T06:07:48;17.60;99.90
20881;DHT22;10600;53.096;8.802;2023-06-14T06:08:48;17.70;99.90
20881;DHT22;10600;53.096;8.802;2023-06-14T06:09:49;17.70;99.90
20881;DHT22;10600;53.096;8.802;2023-06-14T06:10:49;17.70;99.90
20881;DHT22;10600;53.096;8.802;2023-06-14T06:11:50;17.80;99.90
20881;DHT22;10600;53.096;8.802;2023-06-14T06:12:51;17.80;99.90
20881;DHT22;10600;53.096;8.802;2023-06-14T06:13:52;17.80;99.90
20881;DHT22;10600;53.096;8.802;2023-06-14T06:14:53;17.90;99.90
20881;DHT22;10600;53.096;8.802;2023-06-14T06:15:53;17.90;99.90
20881;DHT22;10600;53.096;8.802;2023-06-14T06:16:54;18.00;99.90
20881;DHT22;10600;53.096;8.802;2023-06-14T06:17:55;18.00;99.90
20881;DHT22;10600;53.096;8.802;2023-06-14T06:18:56;18.00;99.90
20881;DHT22;10600;53.096;8.802;2023-06-14T06:19:56;18.10;99.90
20881;DHT22;10600;53.096;8.802;2023-06-14T06:20:57;18.10;99.90
20881;DHT22;10600;53.096;8.802;2023-06-14T06:21:57;18.20;99.90
20881;DHT22;10600;53.096;8.802;2023-06-14T06:22:59;18.20;99.90
20881;DHT22;10600;53.096;8.802;2023-06-14T06:23:59;18.20;99.90
20881;DHT22;10600;53.096;8.802;2023-06-14T06:25:04;18.30;99.90
20881;DHT22;10600;53.096;8.802;2023-06-14T06:26:05;18.30;99.90
20881;DHT22;10600;53.096;8.802;2023-06-14T06:27:05;18.30;99.90
20881;DHT22;10600;53.096;8.802;2023-06-14T06:28:08;18.30;99.90
20881;DHT22;10600;53.096;8.802;2023-06-14T06:29:09;18.30;99.90
20881;DHT22;10600;53.096;8.802;2023-06-14T06:30:11;18.30;99.90